createdAt,value
2023-04-05T00:03:18.860Z,98821.50
2023-04-05T00:08:28.537Z,98819.84
2023-04-05T00:13:30.640Z,98817.81
2023-04-05T00:18:34.285Z,98821.06
2023-04-05T00:23:39.846Z,98821.16
2023-04-05T00:28:41.458Z,98820.69
2023-04-05T00:33:43.266Z,98820.28
2023-04-05T00:38:47.008Z,98825.63
2023-04-05T00:43:49.702Z,98818.28
2023-04-05T00:48:51.314Z,98812.97
2023-04-05T00:53:54.003Z,98813.22
2023-04-05T00:58:55.819Z,98825.09
2023-04-05T01:04:03.142Z,98819.25
2023-04-05T01:09:17.103Z,98818.47
2023-04-05T01:14:18.872Z,98813.38
2023-04-05T01:19:21.039Z,98821.41
2023-04-05T01:24:32.426Z,98817.03
2023-04-05T01:29:39.836Z,98810.78
2023-04-05T01:34:51.787Z,98811.31
2023-04-05T01:39:53.562Z,98811.91
2023-04-05T01:44:57.404Z,98807.00
2023-04-05T01:49:59.005Z,98804.75
2023-04-05T01:55:00.619Z,98808.94
2023-04-05T02:00:02.300Z,98808.81
2023-04-05T02:05:04.059Z,98802.81
2023-04-05T02:10:06.277Z,98806.13
2023-04-05T02:15:08.544Z,98800.81
2023-04-05T02:20:12.686Z,98806.81
2023-04-05T02:25:14.610Z,98803.31
2023-04-05T02:30:16.226Z,98804.03
2023-04-05T02:35:21.330Z,98805.72
2023-04-05T02:40:23.275Z,98805.19
2023-04-05T02:45:25.021Z,98804.91
2023-04-05T02:50:26.668Z,98797.00
2023-04-05T02:55:30.703Z,98791.66
2023-04-05T03:00:32.635Z,98797.44
2023-04-05T03:05:34.281Z,98796.63
2023-04-05T03:10:36.803Z,98791.69
2023-04-05T03:15:38.710Z,98784.09
2023-04-05T03:20:40.528Z,98786.38
2023-04-05T03:25:43.050Z,98783.81
2023-04-05T03:30:44.716Z,98785.47
2023-04-05T03:35:47.018Z,98783.81
2023-04-05T03:40:48.610Z,98786.28
2023-04-05T03:45:50.439Z,98787.91
2023-04-05T03:50:52.025Z,98792.47
2023-04-05T03:55:54.398Z,98790.50
2023-04-05T04:00:56.899Z,98792.63
2023-04-05T04:05:58.799Z,98803.16
2023-04-05T04:11:00.463Z,98806.28
2023-04-05T04:16:02.213Z,98808.50
2023-04-05T04:21:07.196Z,98807.22
2023-04-05T04:26:09.727Z,98803.47
2023-04-05T04:31:14.321Z,98807.41
2023-04-05T04:36:18.232Z,98811.31
2023-04-05T04:41:22.843Z,98812.16
2023-04-05T04:46:30.701Z,98806.22
2023-04-05T04:51:33.458Z,98812.81
2023-04-05T04:56:35.073Z,98814.44
2023-04-05T05:01:38.120Z,98812.16
2023-04-05T05:06:39.820Z,98817.88
2023-04-05T05:11:41.447Z,98823.00
2023-04-05T05:16:43.103Z,98816.22
2023-04-05T05:21:44.752Z,98822.03
2023-04-05T05:26:46.414Z,98828.69
2023-04-05T05:31:48.037Z,98830.53
2023-04-05T05:36:49.705Z,98840.31
2023-04-05T05:41:51.364Z,98834.00
2023-04-05T05:46:52.949Z,98841.84
2023-04-05T05:51:55.602Z,98845.25
2023-04-05T05:56:57.261Z,98850.41
2023-04-05T06:01:58.955Z,98846.00
2023-04-05T06:07:01.798Z,98848.16
2023-04-05T06:12:04.650Z,98843.63
2023-04-05T06:17:06.267Z,98843.50
2023-04-05T06:22:07.888Z,98848.56
2023-04-05T06:27:09.573Z,98850.88
2023-04-05T06:32:11.194Z,98856.84
2023-04-05T06:37:12.835Z,98853.50
2023-04-05T06:42:14.446Z,98855.56
2023-04-05T06:47:16.050Z,98862.13
2023-04-05T06:52:17.764Z,98855.59
2023-04-05T06:57:19.501Z,98860.78
2023-04-05T07:02:21.723Z,98868.59
2023-04-05T07:07:23.338Z,98859.06
2023-04-05T07:12:25.133Z,98866.59
2023-04-05T07:17:26.869Z,98868.91
2023-04-05T07:22:28.475Z,98858.88
2023-04-05T07:27:31.344Z,98861.22
2023-04-05T07:32:34.707Z,98850.94
2023-04-05T07:37:37.266Z,98859.63
2023-04-05T07:42:39.882Z,98854.16
2023-04-05T07:47:41.496Z,98858.09
2023-04-05T07:52:43.145Z,98853.19
2023-04-05T07:57:45.865Z,98851.34
2023-04-05T08:02:47.552Z,98847.00
2023-04-05T08:07:49.196Z,98846.41
2023-04-05T08:12:50.781Z,98846.59
2023-04-05T08:17:52.438Z,98844.13
2023-04-05T08:22:54.082Z,98841.44
2023-04-05T08:27:55.690Z,98844.50
2023-04-05T08:32:57.314Z,98841.00
2023-04-05T08:37:58.952Z,98831.97
2023-04-05T08:43:13.345Z,98825.66
2023-04-05T08:48:15.684Z,98823.44
2023-04-05T08:53:18.138Z,98815.84
2023-04-05T08:58:24.355Z,98817.19
2023-04-05T09:03:31.847Z,98807.84
2023-04-05T09:08:33.891Z,98804.41
2023-04-05T09:13:35.638Z,98805.00
2023-04-05T09:18:37.398Z,98801.25
2023-04-05T09:23:52.628Z,98786.78
2023-04-05T09:28:54.409Z,98780.69
2023-04-05T09:33:58.936Z,98767.50
2023-04-05T09:39:08.236Z,98775.66
2023-04-05T09:44:10.035Z,98769.22
2023-04-05T09:49:12.057Z,98770.25
2023-04-05T09:54:13.688Z,98758.59
2023-04-05T09:59:17.312Z,98751.19
2023-04-05T10:04:24.407Z,98740.16
2023-04-05T10:09:26.341Z,98732.75
2023-04-05T10:14:28.016Z,98726.97
2023-04-05T10:19:51.022Z,98714.16
2023-04-05T10:24:57.895Z,98719.75
2023-04-05T10:29:59.456Z,98707.56
2023-04-05T10:35:11.176Z,98704.09
2023-04-05T10:40:13.408Z,98706.75
2023-04-05T10:45:19.807Z,98692.97
2023-04-05T10:50:25.496Z,98697.53
2023-04-05T10:55:28.102Z,98684.97
2023-04-05T11:00:30.216Z,98683.09
2023-04-05T11:05:34.123Z,98667.44
2023-04-05T11:10:37.923Z,98663.38
2023-04-05T11:15:40.539Z,98661.84
2023-04-05T11:21:05.632Z,98647.19
2023-04-05T11:26:07.302Z,98662.28
2023-04-05T11:31:20.180Z,98647.16
2023-04-05T11:36:46.117Z,98641.78
2023-04-05T11:41:54.286Z,98635.13
2023-04-05T11:46:56.163Z,98630.44
2023-04-05T11:51:58.017Z,98631.91
2023-04-05T11:57:00.283Z,98624.88
2023-04-05T12:02:05.654Z,98617.44
2023-04-05T12:07:14.590Z,98617.91
2023-04-05T12:12:19.106Z,98602.66
2023-04-05T12:17:38.315Z,98608.94
2023-04-05T12:22:41.792Z,98597.69
2023-04-05T12:27:43.831Z,98596.03
2023-04-05T12:32:46.633Z,98585.28
2023-04-05T12:37:51.148Z,98585.28
2023-04-05T12:42:52.787Z,98574.44
2023-04-05T12:47:58.973Z,98575.16
2023-04-05T12:53:05.061Z,98557.56
2023-04-05T12:58:06.742Z,98556.78
2023-04-05T13:03:18.552Z,98544.97
2023-04-05T13:08:20.339Z,98552.53
2023-04-05T13:13:21.928Z,98543.28
2023-04-05T13:18:23.533Z,98536.41
2023-04-05T13:23:25.476Z,98530.09
2023-04-05T13:28:27.483Z,98527.47
2023-04-05T13:33:29.092Z,98528.41
2023-04-05T13:38:30.917Z,98521.81
2023-04-05T13:43:32.578Z,98518.69
2023-04-05T13:48:34.169Z,98516.09
2023-04-05T13:53:35.829Z,98514.38
2023-04-05T13:58:37.433Z,98504.53
2023-04-05T14:03:39.053Z,98503.00
2023-04-05T14:08:40.718Z,98498.13
2023-04-05T14:13:42.366Z,98494.47
2023-04-05T14:18:43.998Z,98495.25
2023-04-05T14:23:46.641Z,98491.03
2023-04-05T14:28:48.253Z,98490.16
2023-04-05T14:33:49.876Z,98483.13
2023-04-05T14:38:51.484Z,98491.09
2023-04-05T14:43:53.814Z,98484.53
2023-04-05T14:48:55.459Z,98489.16
2023-04-05T14:53:57.106Z,98493.75
2023-04-05T14:58:58.835Z,98480.91
2023-04-05T15:04:01.137Z,98486.34
2023-04-05T15:09:02.769Z,98485.03
2023-04-05T15:14:04.405Z,98491.06
2023-04-05T15:19:06.486Z,98480.66
2023-04-05T15:24:08.230Z,98491.94
2023-04-05T15:29:09.904Z,98489.81
2023-04-05T15:34:11.503Z,98480.00
2023-04-05T15:39:14.567Z,98491.69
2023-04-05T15:44:16.523Z,98491.78
2023-04-05T15:49:18.179Z,98490.72
2023-04-05T15:54:20.984Z,98497.19
2023-04-05T15:59:22.686Z,98498.38
2023-04-05T16:04:24.805Z,98497.19
2023-04-05T16:09:26.514Z,98493.09
2023-04-05T16:14:28.304Z,98505.69
2023-04-05T16:19:29.893Z,98514.78
2023-04-05T16:24:33.205Z,98498.97
2023-04-05T16:29:34.801Z,98507.84
2023-04-05T16:34:36.458Z,98515.84
2023-04-05T16:39:38.114Z,98512.03
2023-04-05T16:44:39.739Z,98518.66
2023-04-05T16:49:41.316Z,98520.59
2023-04-05T16:54:43.069Z,98524.88
2023-04-05T16:59:44.759Z,98523.88
2023-04-05T17:04:47.054Z,98541.50
2023-04-05T17:09:48.811Z,98535.41
2023-04-05T17:14:50.554Z,98546.78
2023-04-05T17:19:53.377Z,98552.28
2023-04-05T17:24:54.953Z,98557.72
2023-04-05T17:29:56.605Z,98566.72
2023-04-05T17:34:58.249Z,98575.25
2023-04-05T17:39:59.810Z,98577.09
2023-04-05T17:45:04.128Z,98582.53
2023-04-05T17:50:06.315Z,98592.38
2023-04-05T17:55:08.350Z,98593.97
2023-04-05T18:00:11.874Z,98606.09
2023-04-05T18:05:13.800Z,98609.38
2023-04-05T18:10:15.542Z,98614.13
2023-04-05T18:15:18.480Z,98626.69
2023-04-05T18:20:20.126Z,98636.78
2023-04-05T18:25:22.203Z,98638.88
2023-04-05T18:30:23.859Z,98648.75
2023-04-05T18:35:25.619Z,98662.81
2023-04-05T18:40:27.355Z,98668.69
2023-04-05T18:45:28.967Z,98675.00
2023-04-05T18:50:30.696Z,98684.66
2023-04-05T18:55:32.351Z,98693.38
2023-04-05T19:00:35.060Z,98694.84
2023-04-05T19:05:36.733Z,98709.22
2023-04-05T19:10:38.405Z,98713.53
2023-04-05T19:15:40.443Z,98715.81
2023-04-05T19:20:42.348Z,98719.97
2023-04-05T19:25:44.478Z,98724.88
2023-04-05T19:30:48.168Z,98728.25
2023-04-05T19:35:50.276Z,98730.09
2023-04-05T19:40:51.901Z,98731.31
2023-04-05T19:45:58.471Z,98741.31
2023-04-05T19:51:03.108Z,98743.34
2023-04-05T19:56:22.091Z,98735.25
2023-04-05T20:01:32.131Z,98738.44
2023-04-05T20:06:34.683Z,98746.50
2023-04-05T20:11:36.586Z,98746.84
2023-04-05T20:16:38.579Z,98745.25
2023-04-05T20:21:40.562Z,98750.50
2023-04-05T20:26:42.930Z,98750.69
2023-04-05T20:31:44.759Z,98746.03
2023-04-05T20:36:58.156Z,98749.66
2023-04-05T20:42:00.781Z,98753.19
2023-04-05T20:47:02.393Z,98759.84
2023-04-05T20:52:07.843Z,98758.06
2023-04-05T20:57:09.652Z,98753.38
2023-04-05T21:02:11.470Z,98761.00
2023-04-05T21:07:13.588Z,98754.03
2023-04-05T21:12:15.516Z,98752.66
2023-04-05T21:17:17.097Z,98757.31
2023-04-05T21:22:18.916Z,98758.59
2023-04-05T21:27:20.493Z,98751.94
2023-04-05T21:32:22.046Z,98752.69
2023-04-05T21:37:23.690Z,98754.84
2023-04-05T21:42:25.281Z,98757.44
2023-04-05T21:47:26.918Z,98757.13
2023-04-05T21:52:29.830Z,98757.44
2023-04-05T21:57:35.612Z,98750.09
2023-04-05T22:02:40.904Z,98756.94
2023-04-05T22:07:42.553Z,98756.75
2023-04-05T22:12:44.304Z,98753.47
2023-04-05T22:17:46.043Z,98748.19
2023-04-05T22:22:47.918Z,98751.69
2023-04-05T22:27:49.574Z,98751.47
2023-04-05T22:32:52.081Z,98751.00
2023-04-05T22:37:53.720Z,98746.56
2023-04-05T22:42:55.450Z,98743.28
2023-04-05T22:47:57.108Z,98749.22
2023-04-05T22:52:58.847Z,98745.06
2023-04-05T22:58:00.544Z,98749.31
2023-04-05T23:03:02.226Z,98749.88
2023-04-05T23:08:04.414Z,98741.53
2023-04-05T23:13:06.269Z,98748.13
2023-04-05T23:18:07.979Z,98753.47
2023-04-05T23:23:09.573Z,98742.19
2023-04-05T23:28:11.262Z,98748.03
2023-04-05T23:33:13.359Z,98745.31
2023-04-05T23:38:15.645Z,98740.25
2023-04-05T23:43:17.252Z,98732.06
2023-04-05T23:48:18.888Z,98727.97
2023-04-05T23:53:20.486Z,98726.06
2023-04-05T23:58:22.088Z,98730.25
